Pagrindinis puslapis
METAR-TAF:

METAR-TAF

Oro uostai :

Pertas, Australija

platuma: 31-56S, ilguma: 115-57E, Aukštis: 20 m

Dabartinis oras

Ataskaita buvo paskelbta 25 minutes, ne 02:30 UTC
Vėjas 12 kt iš Rytų
Temperatūra 21°C
Drėgmė 53%
Slėgis 1024 hPa
Matomumas 10 km arba daugiau
nėra debesų žemiau 1500 m ir nėra kamuolinių lietaus debesų

METAR: YPPH 220230Z 08012KT CAVOK 21/11 Q1024

Laikas: 10:55 (02:55 UTC)

Prognozė

Ataskaita buvo paskelbta 30 minutes, ne 02:25 UTC
Prognozė galioja nuo 22 metu 03 UTC su 23 metu 06 UTC
Vėjas 12 kt iš Rytų/Šiaurės Rytų
Matomumas 10 km arba daugiau
nėra debesų žemiau 1500 m ir nėra kamuolinių lietaus debesų
Nuo 22 metu 0800 UTC
Vėjas 9 kt iš Rytų
Matomumas 10 km arba daugiau
nėra debesų žemiau 1500 m ir nėra kamuolinių lietaus debesų

TAF: YPPH 220225Z 2203/2306 07012KT CAVOK FM220800 09009KT CAVOK

Orai ataskaitas ir orų prognozės (METAR, TAF).

turimą stotys yra geltonos ir raudonos taškus žemėlapyje.

Perkelti pele per norėdami pamatyti stoties vardą.

Tada spustelėkite, norėdami matyti oro stebėjimo ir prognozės.

Norėdami pakeisti žemėlapį: spustelėkite ant žalios mygtukų su juodo kryžiaus žemyn,; žalią mygtuką su brūkšneliu, jei norite nutolinti; arba žalių rodyklių gretimoms žemėlapius.


METAR-TAF: